createdAt,value
2022-12-19T00:18:04.909Z,100085.28
2022-12-19T00:38:07.649Z,100048.62
2022-12-19T00:58:10.323Z,100031.72
2022-12-19T01:18:12.948Z,100025.97
2022-12-19T01:38:15.722Z,100018.84
2022-12-19T01:58:18.298Z,99983.66
2022-12-19T02:18:20.985Z,99939.81
2022-12-19T02:38:23.730Z,99917.97
2022-12-19T02:58:26.273Z,99920.50
2022-12-19T03:18:28.817Z,99931.87
2022-12-19T03:38:31.321Z,99921.09
2022-12-19T03:58:33.788Z,99895.06
2022-12-19T04:18:36.340Z,99882.41
2022-12-19T04:38:39.055Z,99882.47
2022-12-19T04:58:41.682Z,99862.75
2022-12-19T05:18:45.099Z,99850.38
2022-12-19T05:38:47.936Z,99831.34
2022-12-19T05:58:50.502Z,99828.38
2022-12-19T06:18:53.194Z,99814.66
2022-12-19T06:38:56.891Z,99827.75
2022-12-19T06:59:02.655Z,99837.78
2022-12-19T07:19:06.344Z,99827.09
2022-12-19T07:39:11.607Z,99823.72
2022-12-19T07:59:14.335Z,99815.19
2022-12-19T08:19:16.942Z,99793.22
2022-12-19T08:39:19.432Z,99784.59
2022-12-19T08:59:30.991Z,99779.72
2022-12-19T09:19:34.550Z,99770.06
2022-12-19T09:39:37.398Z,99738.84
2022-12-19T09:59:47.721Z,99740.66
2022-12-19T10:19:52.551Z,99696.19
2022-12-19T10:39:55.017Z,99676.44
2022-12-19T10:59:57.538Z,99669.22
2022-12-19T11:29:43.776Z,99634.25
2022-12-19T11:40:22.634Z,99596.94
2022-12-19T12:00:25.670Z,99585.59
2022-12-19T12:31:31.133Z,99554.72
2022-12-19T12:40:51.797Z,99534.13
2022-12-19T13:00:54.274Z,99524.22
2022-12-19T13:20:56.875Z,99501.47
2022-12-19T13:40:59.353Z,99487.25
2022-12-19T14:01:02.328Z,99476.50
2022-12-19T14:26:52.234Z,99451.81
2022-12-19T14:53:08.348Z,99445.81
2022-12-19T15:05:52.897Z,99418.44
2022-12-19T15:26:06.131Z,99406.19
2022-12-19T15:46:09.541Z,99381.09
2022-12-19T16:06:12.031Z,99383.25
2022-12-19T16:26:14.846Z,99364.88
2022-12-19T16:46:17.567Z,99348.13
2022-12-19T17:06:20.070Z,99333.53
2022-12-19T17:26:22.824Z,99315.63
2022-12-19T18:26:58.996Z,99278.19
2022-12-19T18:47:02.430Z,99277.47
2022-12-19T19:07:05.038Z,99247.72
2022-12-19T19:27:07.857Z,99227.50
2022-12-19T19:47:11.570Z,99217.50
2022-12-19T20:07:14.233Z,99204.62
2022-12-19T20:27:16.942Z,99191.41
2022-12-19T20:47:19.758Z,99185.66
2022-12-19T21:07:22.923Z,99179.38
2022-12-19T21:27:25.623Z,99148.88
2022-12-19T21:47:29.186Z,99129.84
2022-12-19T22:48:11.183Z,99103.63
2022-12-19T23:08:16.948Z,99078.00
2022-12-19T23:28:19.368Z,99064.94
